createdAt,value
2023-03-20T00:00:49.194Z,100074.38
2023-03-20T00:01:44.006Z,100072.53
2023-03-20T00:02:23.558Z,100054.75
2023-03-20T00:03:10.021Z,100060.75
2023-03-20T00:03:44.232Z,100061.59
2023-03-20T00:04:32.067Z,100070.41
2023-03-20T00:05:25.030Z,100071.00
2023-03-20T00:06:05.156Z,100067.00
2023-03-20T00:06:45.003Z,100067.59
2023-03-20T00:07:26.402Z,100047.78
2023-03-20T00:08:07.993Z,100064.28
2023-03-20T00:08:49.178Z,100076.25
2023-03-20T00:09:30.017Z,100060.75
2023-03-20T00:10:11.436Z,100078.94
2023-03-20T00:10:53.042Z,100066.16
2023-03-20T00:11:36.214Z,100071.84
2023-03-20T00:12:31.000Z,100070.41
2023-03-20T00:13:13.085Z,100076.97
2023-03-20T00:13:53.994Z,100072.16
2023-03-20T00:14:35.121Z,100065.00
2023-03-20T00:15:37.254Z,100074.53
2023-03-20T00:16:18.053Z,100080.66
2023-03-20T00:16:54.146Z,100067.00
2023-03-20T00:17:27.809Z,100063.47
2023-03-20T00:18:09.001Z,100076.13
2023-03-20T00:18:49.651Z,100067.72
2023-03-20T00:19:34.016Z,100069.16
2023-03-20T00:20:22.124Z,100061.06
2023-03-20T00:21:01.978Z,100036.00
2023-03-20T00:21:41.991Z,100071.31
2023-03-20T00:22:16.505Z,100060.78
2023-03-20T00:22:51.745Z,100072.16
2023-03-20T00:23:31.985Z,100069.19
2023-03-20T00:24:06.154Z,100072.31
2023-03-20T00:24:39.793Z,100059.63
2023-03-20T00:25:26.979Z,100066.88
2023-03-20T00:26:01.211Z,100049.50
2023-03-20T00:26:35.740Z,100070.56
2023-03-20T00:27:21.055Z,100058.78
2023-03-20T00:27:55.651Z,100074.69
2023-03-20T00:28:49.898Z,100072.69
2023-03-20T00:29:36.976Z,100069.56
2023-03-20T00:30:28.643Z,100062.28
2023-03-20T00:31:02.819Z,100055.31
2023-03-20T00:31:46.012Z,100043.38
2023-03-20T00:32:28.003Z,100067.28
2023-03-20T00:33:01.806Z,100070.41
2023-03-20T00:33:48.980Z,100049.31
2023-03-20T00:34:27.099Z,100063.53
2023-03-20T00:35:15.003Z,100068.69
2023-03-20T00:35:49.024Z,100060.16
2023-03-20T00:36:37.016Z,100049.91
2023-03-20T00:37:14.327Z,100059.88
2023-03-20T00:37:55.000Z,100064.72
2023-03-20T00:38:29.102Z,100068.38
2023-03-20T00:39:03.083Z,100065.25
2023-03-20T00:39:43.965Z,100066.25
2023-03-20T00:40:19.150Z,100055.16
2023-03-20T00:40:52.875Z,100060.25
2023-03-20T00:41:54.979Z,100076.34
2023-03-20T00:42:29.092Z,100058.41
2023-03-20T00:43:10.991Z,100066.41
2023-03-20T00:43:52.626Z,100057.72
2023-03-20T00:44:42.504Z,100077.81
2023-03-20T00:45:26.122Z,100074.97
2023-03-20T00:46:05.991Z,100061.69
2023-03-20T00:46:47.126Z,100054.03
2023-03-20T00:47:30.949Z,100062.97
2023-03-20T00:48:19.037Z,100043.91
2023-03-20T00:48:52.855Z,100048.75
2023-03-20T00:49:46.974Z,100051.59
2023-03-20T00:50:27.602Z,100057.78
2023-03-20T00:51:14.973Z,100060.47
2023-03-20T00:51:49.000Z,100057.94
2023-03-20T00:52:37.956Z,100071.00
2023-03-20T00:53:12.432Z,100057.63
2023-03-20T00:53:52.992Z,100067.59
2023-03-20T00:54:27.026Z,100055.47
2023-03-20T00:55:00.851Z,100055.75
2023-03-20T00:55:40.955Z,100064.28
2023-03-20T00:56:40.074Z,100073.00
2023-03-20T00:57:20.664Z,100052.78
2023-03-20T00:58:06.967Z,100049.34
2023-03-20T00:58:41.043Z,100065.03
2023-03-20T00:59:25.975Z,100065.75
2023-03-20T01:00:24.065Z,100062.72
2023-03-20T01:01:04.977Z,100077.56
2023-03-20T01:01:45.116Z,100075.88
2023-03-20T01:03:00.959Z,100061.03
2023-03-20T01:03:41.150Z,100050.50
2023-03-20T01:04:23.940Z,100062.59
2023-03-20T01:05:04.944Z,100075.16
2023-03-20T01:05:39.070Z,100061.47
2023-03-20T01:06:13.688Z,100057.50
2023-03-20T01:06:54.975Z,100061.47
2023-03-20T01:07:29.056Z,100067.31
2023-03-20T01:08:03.109Z,100069.59
2023-03-20T01:08:44.012Z,100073.28
2023-03-20T01:09:18.095Z,100064.47
2023-03-20T01:09:58.959Z,100051.34
2023-03-20T01:10:40.041Z,100073.84
2023-03-20T01:11:19.956Z,100062.75
2023-03-20T01:12:01.405Z,100079.81
2023-03-20T01:12:41.941Z,100050.22
2023-03-20T01:13:43.010Z,100053.34
2023-03-20T01:14:17.876Z,100059.31
2023-03-20T01:15:02.971Z,100067.00
2023-03-20T01:15:41.760Z,100055.63
2023-03-20T01:16:25.520Z,100038.81
2023-03-20T01:17:06.939Z,100070.84
2023-03-20T01:17:41.677Z,100048.78
2023-03-20T01:18:17.539Z,100059.03
2023-03-20T01:18:59.916Z,100056.16
2023-03-20T01:19:34.049Z,100045.34
2023-03-20T01:20:28.954Z,100068.72
2023-03-20T01:21:09.045Z,100062.84
2023-03-20T01:21:49.952Z,100045.34
2023-03-20T01:22:30.487Z,100068.69
2023-03-20T01:23:10.932Z,100071.00
2023-03-20T01:23:52.043Z,100054.78
2023-03-20T01:24:31.923Z,100061.59
2023-03-20T01:25:13.068Z,100063.28
2023-03-20T01:25:53.995Z,100056.63
2023-03-20T01:26:45.044Z,100063.00
2023-03-20T01:27:26.929Z,100063.00
2023-03-20T01:28:08.025Z,100060.75
2023-03-20T01:28:47.936Z,100050.22
2023-03-20T01:29:33.100Z,100066.44
2023-03-20T01:30:27.917Z,100060.19
2023-03-20T01:31:14.940Z,100064.59
2023-03-20T01:31:49.924Z,100041.81
2023-03-20T01:32:36.956Z,100065.03
2023-03-20T01:33:20.503Z,100068.28
2023-03-20T01:34:08.928Z,100063.19
2023-03-20T01:34:43.431Z,100050.50
2023-03-20T01:35:35.138Z,100049.66
2023-03-20T01:36:12.371Z,100061.31
2023-03-20T01:37:04.944Z,100048.81
2023-03-20T01:37:39.017Z,100067.88
2023-03-20T01:38:25.249Z,100031.31
2023-03-20T01:39:06.908Z,100066.88
2023-03-20T01:39:41.997Z,100062.75
2023-03-20T01:40:46.087Z,100067.59
2023-03-20T01:41:26.921Z,100049.38
2023-03-20T01:42:01.036Z,100057.63
2023-03-20T01:42:41.941Z,100052.50
2023-03-20T01:43:26.024Z,100062.19
2023-03-20T01:44:08.931Z,100061.16
2023-03-20T01:44:50.093Z,100063.31
2023-03-20T01:45:37.221Z,100048.81
2023-03-20T01:46:36.877Z,100056.63
2023-03-20T01:47:29.908Z,100058.78
2023-03-20T01:48:22.979Z,100057.94
2023-03-20T01:48:57.097Z,100058.94
2023-03-20T01:50:07.767Z,100057.78
2023-03-20T01:50:48.918Z,100042.66
2023-03-20T01:51:37.722Z,100062.00
2023-03-20T01:52:11.777Z,100048.31
2023-03-20T01:52:53.904Z,100024.84
2023-03-20T01:53:38.964Z,100040.63
2023-03-20T01:54:17.916Z,100039.59
2023-03-20T01:55:04.909Z,100046.00
2023-03-20T01:55:39.826Z,100041.88
2023-03-20T01:56:29.904Z,100061.09
2023-03-20T01:57:21.136Z,100062.53
2023-03-20T01:58:08.893Z,100050.41
2023-03-20T01:58:52.918Z,100062.09
2023-03-20T01:59:38.013Z,100053.81
2023-03-20T02:00:22.932Z,100061.06
2023-03-20T02:01:03.270Z,100052.13
2023-03-20T02:01:44.918Z,100034.44
2023-03-20T02:02:35.996Z,100049.72
2023-03-20T02:03:16.924Z,100056.78
2023-03-20T02:04:04.981Z,100038.91
2023-03-20T02:04:44.638Z,100039.94
2023-03-20T02:05:35.128Z,100060.72
2023-03-20T02:06:10.344Z,100051.03
2023-03-20T02:06:57.935Z,100042.22
2023-03-20T02:07:33.588Z,100047.38
2023-03-20T02:08:55.888Z,100067.59
2023-03-20T02:09:35.938Z,100055.91
2023-03-20T02:10:20.982Z,100053.34
2023-03-20T02:11:03.012Z,100064.47
2023-03-20T02:11:45.134Z,100043.66
2023-03-20T02:12:26.864Z,100056.66
2023-03-20T02:13:09.059Z,100059.63
2023-03-20T02:13:50.888Z,100033.56
2023-03-20T02:14:30.988Z,100049.50
2023-03-20T02:15:13.930Z,100044.94
2023-03-20T02:16:22.099Z,100040.09
2023-03-20T02:17:01.938Z,100061.69
2023-03-20T02:17:43.549Z,100053.31
2023-03-20T02:18:23.873Z,100046.03
2023-03-20T02:19:04.999Z,100062.69
2023-03-20T02:20:34.942Z,100065.66
2023-03-20T02:22:05.100Z,100064.97
2023-03-20T02:23:13.894Z,100056.69
2023-03-20T02:24:13.500Z,100060.66
2023-03-20T02:25:26.863Z,100066.09
2023-03-20T02:26:24.920Z,100056.66
2023-03-20T02:27:36.879Z,100065.50
2023-03-20T02:29:09.853Z,100062.34
2023-03-20T02:30:52.950Z,100059.91
2023-03-20T02:32:32.957Z,100048.13
2023-03-20T02:33:20.964Z,100037.03
2023-03-20T02:35:09.876Z,100028.81
2023-03-20T02:36:34.948Z,100056.06
2023-03-20T02:38:01.886Z,100055.81
2023-03-20T02:39:12.062Z,100056.50
2023-03-20T02:40:35.882Z,100058.78
2023-03-20T02:41:59.953Z,100062.75
2023-03-20T02:43:27.866Z,100057.34
2023-03-20T02:44:16.028Z,100041.53
2023-03-20T02:45:23.853Z,100061.47
2023-03-20T02:46:19.007Z,100057.91
2023-03-20T02:47:34.854Z,100059.91
2023-03-20T02:48:49.938Z,100053.38
2023-03-20T02:49:55.845Z,100057.50
2023-03-20T02:51:35.844Z,100041.09
2023-03-20T02:53:43.846Z,100050.50
2023-03-20T02:54:59.872Z,100030.59
2023-03-20T02:55:50.157Z,100056.19
2023-03-20T02:56:57.827Z,100054.59
2023-03-20T02:57:46.949Z,100050.09
2023-03-20T02:58:34.857Z,100050.38
2023-03-20T02:59:58.111Z,100045.25
2023-03-20T03:00:54.892Z,100051.91
2023-03-20T03:02:05.830Z,100045.25
2023-03-20T03:03:12.837Z,100049.81
2023-03-20T03:04:25.824Z,100052.78
2023-03-20T03:05:29.853Z,100053.78
2023-03-20T03:06:35.903Z,100054.06
2023-03-20T03:07:10.993Z,100041.38
2023-03-20T03:07:59.844Z,100035.69
2023-03-20T03:08:38.931Z,100050.75
2023-03-20T03:09:52.824Z,100050.75
2023-03-20T03:10:41.006Z,100055.91
2023-03-20T03:11:28.842Z,100032.28
2023-03-20T03:12:25.873Z,100041.38
2023-03-20T03:13:26.836Z,100045.91
2023-03-20T03:14:21.875Z,100053.88
2023-03-20T03:15:38.384Z,100038.22
2023-03-20T03:16:43.817Z,100062.75
2023-03-20T03:17:39.844Z,100058.19
2023-03-20T03:18:38.828Z,100059.63
2023-03-20T03:19:36.875Z,100014.34
2023-03-20T03:20:38.843Z,100055.50
2023-03-20T03:21:33.828Z,100040.25
2023-03-20T03:22:30.815Z,100054.06
2023-03-20T03:23:12.829Z,100030.44
2023-03-20T03:23:56.354Z,100059.03
2023-03-20T03:24:45.820Z,100056.91
2023-03-20T03:25:29.942Z,100058.47
2023-03-20T03:26:12.840Z,100058.91
2023-03-20T03:26:53.655Z,100044.22
2023-03-20T03:27:55.799Z,100050.91
2023-03-20T03:28:51.834Z,100049.78
2023-03-20T03:29:27.944Z,100038.41
2023-03-20T03:30:30.799Z,100050.38
2023-03-20T03:31:05.998Z,100037.97
2023-03-20T03:31:53.843Z,100059.31
2023-03-20T03:32:43.926Z,100049.34
2023-03-20T03:33:36.843Z,100063.31
2023-03-20T03:34:17.845Z,100051.63
2023-03-20T03:35:13.798Z,100065.88
2023-03-20T03:36:26.800Z,100042.81
2023-03-20T03:38:06.821Z,100044.66
2023-03-20T03:39:32.838Z,100056.59
2023-03-20T03:40:32.919Z,100065.44
2023-03-20T03:41:27.793Z,100053.19
2023-03-20T03:42:33.960Z,100052.19
2023-03-20T03:43:22.813Z,100040.94
2023-03-20T03:44:39.851Z,100067.84
2023-03-20T03:45:46.815Z,100061.31
2023-03-20T03:47:15.802Z,100064.44
2023-03-20T03:48:30.790Z,100039.38
2023-03-20T03:49:33.802Z,100047.94
2023-03-20T03:50:45.872Z,100060.47
2023-03-20T03:51:31.901Z,100059.19
2023-03-20T03:52:17.823Z,100058.19
2023-03-20T03:52:59.678Z,100031.84
2023-03-20T03:53:46.768Z,100023.75
2023-03-20T03:54:44.898Z,100035.97
2023-03-20T03:55:32.834Z,100064.47
2023-03-20T03:56:18.832Z,100055.34
2023-03-20T03:56:54.916Z,100045.97
2023-03-20T03:57:56.806Z,100056.63
2023-03-20T03:58:35.888Z,100053.34
2023-03-20T03:59:34.800Z,100055.50
2023-03-20T04:00:12.148Z,100059.34
2023-03-20T04:00:58.788Z,100061.75
2023-03-20T04:01:41.858Z,100047.53
2023-03-20T04:02:36.775Z,100057.50
2023-03-20T04:03:33.799Z,100057.91
2023-03-20T04:04:29.855Z,100047.25
2023-03-20T04:05:24.788Z,100062.47
2023-03-20T04:06:19.797Z,100060.19
2023-03-20T04:07:07.802Z,100056.63
2023-03-20T04:07:41.873Z,100058.47
2023-03-20T04:08:28.763Z,100041.38
2023-03-20T04:09:02.930Z,100056.47
2023-03-20T04:09:49.759Z,100036.56
2023-03-20T04:10:23.899Z,100063.91
2023-03-20T04:11:10.793Z,100053.91
2023-03-20T04:11:44.914Z,100055.63
2023-03-20T04:12:44.799Z,100067.75
2023-03-20T04:13:18.899Z,100058.50
2023-03-20T04:14:05.776Z,100043.09
2023-03-20T04:14:39.871Z,100058.31
2023-03-20T04:15:27.760Z,100044.94
2023-03-20T04:16:01.909Z,100047.81
2023-03-20T04:16:48.795Z,100057.94
2023-03-20T04:17:22.872Z,100057.19
2023-03-20T04:18:10.813Z,100049.66
2023-03-20T04:18:45.446Z,100055.22
2023-03-20T04:19:32.771Z,100041.84
2023-03-20T04:20:06.874Z,100072.72
2023-03-20T04:20:53.762Z,100067.91
2023-03-20T04:21:27.898Z,100074.75
2023-03-20T04:22:14.756Z,100071.03
2023-03-20T04:22:48.878Z,100068.75
2023-03-20T04:23:35.818Z,100054.47
2023-03-20T04:24:09.875Z,100068.16
2023-03-20T04:24:57.768Z,100076.81
2023-03-20T04:25:33.023Z,100063.03
2023-03-20T04:26:20.773Z,100067.03
2023-03-20T04:26:54.899Z,100033.41
2023-03-20T04:27:42.747Z,100059.59
2023-03-20T04:28:16.864Z,100055.91
2023-03-20T04:28:58.769Z,100070.44
2023-03-20T04:29:39.425Z,100056.50
2023-03-20T04:30:20.770Z,100050.78
2023-03-20T04:31:02.904Z,100057.91
2023-03-20T04:31:42.792Z,100060.47
2023-03-20T04:32:22.936Z,100064.88
2023-03-20T04:33:04.747Z,100071.44
2023-03-20T04:33:44.856Z,100058.03
2023-03-20T04:34:24.772Z,100059.31
2023-03-20T04:35:05.097Z,100055.63
2023-03-20T04:35:44.772Z,100065.16
2023-03-20T04:36:24.948Z,100070.44
2023-03-20T04:37:07.759Z,100055.31
2023-03-20T04:37:47.835Z,100055.31
2023-03-20T04:38:29.761Z,100066.75
2023-03-20T04:39:09.854Z,100045.91
2023-03-20T04:39:50.766Z,100058.19
2023-03-20T04:40:31.566Z,100056.72
2023-03-20T04:41:12.743Z,100065.16
2023-03-20T04:41:52.876Z,100072.09
2023-03-20T04:42:32.786Z,100059.88
2023-03-20T04:43:12.857Z,100055.63
2023-03-20T04:43:53.759Z,100051.09
2023-03-20T04:44:33.845Z,100055.91
2023-03-20T04:45:15.795Z,100058.34
2023-03-20T04:45:56.197Z,100055.91
2023-03-20T04:46:35.750Z,100070.44
2023-03-20T04:47:15.872Z,100072.28
2023-03-20T04:47:55.742Z,100075.56
2023-03-20T04:48:35.953Z,100068.41
2023-03-20T04:49:16.768Z,100060.59
2023-03-20T04:49:56.852Z,100044.25
2023-03-20T04:50:37.767Z,100085.09
2023-03-20T04:51:17.895Z,100068.16
2023-03-20T04:51:57.741Z,100083.50
2023-03-20T04:52:37.851Z,100080.38
2023-03-20T04:53:18.758Z,100070.56
2023-03-20T04:53:58.860Z,100054.63
2023-03-20T04:54:38.758Z,100083.25
2023-03-20T04:55:18.897Z,100078.25
2023-03-20T04:56:01.964Z,100074.13
2023-03-20T04:56:42.836Z,100072.25
2023-03-20T04:57:23.735Z,100084.25
2023-03-20T04:58:03.836Z,100059.88
2023-03-20T04:58:43.747Z,100085.53
2023-03-20T04:59:23.863Z,100077.69
2023-03-20T05:00:03.735Z,100081.81
2023-03-20T05:00:43.847Z,100063.19
2023-03-20T05:01:24.801Z,100072.56
2023-03-20T05:02:04.847Z,100067.56
2023-03-20T05:02:44.743Z,100079.53
2023-03-20T05:03:24.835Z,100085.25
2023-03-20T05:04:07.759Z,100079.41
2023-03-20T05:04:48.855Z,100068.41
2023-03-20T05:05:29.727Z,100070.28
2023-03-20T05:06:09.814Z,100081.81
2023-03-20T05:06:50.748Z,100081.25
2023-03-20T05:07:30.925Z,100091.50
2023-03-20T05:08:12.738Z,100067.28
2023-03-20T05:08:52.831Z,100077.28
2023-03-20T05:09:33.752Z,100071.00
2023-03-20T05:10:16.032Z,100083.38
2023-03-20T05:10:55.749Z,100072.00
2023-03-20T05:11:35.961Z,100092.94
2023-03-20T05:12:16.747Z,100070.44
2023-03-20T05:12:56.807Z,100077.84
2023-03-20T05:13:37.739Z,100075.44
2023-03-20T05:14:17.825Z,100083.41
2023-03-20T05:15:04.761Z,100074.44
2023-03-20T05:15:38.636Z,100095.06
2023-03-20T05:16:25.755Z,100085.53
2023-03-20T05:16:59.596Z,100071.56
2023-03-20T05:17:40.730Z,100094.06
2023-03-20T05:18:14.820Z,100090.66
2023-03-20T05:18:48.575Z,100086.38
2023-03-20T05:19:29.720Z,100094.50
2023-03-20T05:20:03.820Z,100077.69
2023-03-20T05:20:37.481Z,100085.66
2023-03-20T05:21:18.714Z,100082.53
2023-03-20T05:21:52.852Z,100081.53
2023-03-20T05:22:26.679Z,100093.66
2023-03-20T05:23:07.823Z,100091.25
2023-03-20T05:23:41.841Z,100075.28
2023-03-20T05:24:15.511Z,100097.25
2023-03-20T05:24:55.716Z,100082.97
2023-03-20T05:25:29.814Z,100077.03
2023-03-20T05:26:05.143Z,100092.53
2023-03-20T05:26:45.719Z,100085.69
2023-03-20T05:27:19.814Z,100097.38
2023-03-20T05:27:55.028Z,100081.84
2023-03-20T05:28:35.753Z,100082.28
2023-03-20T05:29:09.828Z,100080.69
2023-03-20T05:29:43.485Z,100071.31
2023-03-20T05:30:25.706Z,100086.97
2023-03-20T05:30:59.870Z,100084.41
2023-03-20T05:31:33.466Z,100072.00
2023-03-20T05:32:14.719Z,100080.84
2023-03-20T05:32:48.812Z,100088.94
2023-03-20T05:33:22.907Z,100100.19
2023-03-20T05:34:03.723Z,100082.13
2023-03-20T05:34:37.821Z,100095.19
2023-03-20T05:35:12.437Z,100094.50
2023-03-20T05:35:53.778Z,100078.00
2023-03-20T05:36:27.850Z,100071.56
2023-03-20T05:37:01.611Z,100096.09
2023-03-20T05:37:42.690Z,100107.72
2023-03-20T05:38:16.805Z,100109.63
2023-03-20T05:38:51.633Z,100096.50
2023-03-20T05:39:32.713Z,100103.06
2023-03-20T05:40:06.993Z,100088.69
2023-03-20T05:40:41.916Z,100104.91
2023-03-20T05:41:22.724Z,100086.53
2023-03-20T05:41:56.814Z,100097.66
2023-03-20T05:42:30.703Z,100100.34
2023-03-20T05:43:11.688Z,100110.31
2023-03-20T05:43:45.943Z,100083.28
2023-03-20T05:44:19.468Z,100104.78
2023-03-20T05:45:00.784Z,100104.06
2023-03-20T05:45:35.016Z,100085.84
2023-03-20T05:46:09.522Z,100081.13
2023-03-20T05:46:50.672Z,100103.50
2023-03-20T05:47:26.180Z,100107.34
2023-03-20T05:48:00.509Z,100085.38
2023-03-20T05:48:40.712Z,100082.72
2023-03-20T05:49:14.839Z,100080.97
2023-03-20T05:49:48.493Z,100107.75
2023-03-20T05:50:29.726Z,100103.34
2023-03-20T05:51:03.813Z,100115.75
2023-03-20T05:51:38.601Z,100109.78
2023-03-20T05:52:18.703Z,100106.22
2023-03-20T05:52:55.798Z,100106.91
2023-03-20T05:53:29.496Z,100078.09
2023-03-20T05:54:10.689Z,100092.63
2023-03-20T05:54:44.855Z,100085.38
2023-03-20T05:55:18.465Z,100102.94
2023-03-20T05:55:59.747Z,100092.94
2023-03-20T05:56:33.886Z,100093.69
2023-03-20T05:57:07.530Z,100094.13
2023-03-20T05:57:48.723Z,100098.66
2023-03-20T05:58:22.768Z,100093.94
2023-03-20T05:58:56.514Z,100092.50
2023-03-20T05:59:37.675Z,100117.47
2023-03-20T06:00:12.842Z,100105.63
2023-03-20T06:00:46.639Z,100089.78
2023-03-20T06:01:29.709Z,100105.47
2023-03-20T06:02:03.829Z,100119.59
2023-03-20T06:02:38.203Z,100108.78
2023-03-20T06:03:18.757Z,100124.44
2023-03-20T06:03:52.796Z,100103.94
2023-03-20T06:04:27.731Z,100101.22
2023-03-20T06:05:08.683Z,100105.75
2023-03-20T06:05:42.810Z,100120.28
2023-03-20T06:06:17.652Z,100120.88
2023-03-20T06:06:58.728Z,100114.88
2023-03-20T06:07:32.807Z,100092.94
2023-03-20T06:08:07.683Z,100125.13
2023-03-20T06:08:48.672Z,100099.22
2023-03-20T06:09:22.845Z,100111.47
2023-03-20T06:09:56.821Z,100102.34
2023-03-20T06:10:36.674Z,100094.38
2023-03-20T06:11:11.265Z,100110.31
2023-03-20T06:11:46.501Z,100123.44
2023-03-20T06:12:27.679Z,100125.13
2023-03-20T06:13:01.895Z,100120.72
2023-03-20T06:13:35.569Z,100111.91
2023-03-20T06:14:15.698Z,100125.00
2023-03-20T06:14:49.772Z,100119.16
2023-03-20T06:15:36.915Z,100128.84
2023-03-20T06:16:11.836Z,100129.72
2023-03-20T06:17:00.699Z,100120.16
2023-03-20T06:17:41.692Z,100112.44
2023-03-20T06:18:35.645Z,100118.84
2023-03-20T06:19:29.749Z,100123.13
2023-03-20T06:20:24.674Z,100130.53
2023-03-20T06:21:19.681Z,100125.13
2023-03-20T06:22:13.682Z,100133.78
2023-03-20T06:23:00.691Z,100131.06
2023-03-20T06:23:34.754Z,100126.53
2023-03-20T06:24:22.651Z,100124.13
2023-03-20T06:24:57.340Z,100133.78
2023-03-20T06:25:44.651Z,100133.06
2023-03-20T06:26:18.778Z,100115.41
2023-03-20T06:27:05.701Z,100136.63
2023-03-20T06:27:39.842Z,100119.53
2023-03-20T06:28:20.678Z,100134.78
2023-03-20T06:29:00.876Z,100111.28
2023-03-20T06:29:41.653Z,100120.25
2023-03-20T06:30:22.753Z,100143.06
2023-03-20T06:31:03.673Z,100127.22
2023-03-20T06:31:43.774Z,100139.06
2023-03-20T06:32:24.648Z,100109.59
2023-03-20T06:33:04.793Z,100120.84
2023-03-20T06:33:45.696Z,100121.25
2023-03-20T06:34:26.536Z,100144.06
2023-03-20T06:35:07.697Z,100129.38
2023-03-20T06:35:48.249Z,100137.78
2023-03-20T06:36:29.631Z,100145.34
2023-03-20T06:37:09.772Z,100125.81
2023-03-20T06:37:50.639Z,100142.19
2023-03-20T06:38:30.816Z,100125.94
2023-03-20T06:39:11.731Z,100132.50
2023-03-20T06:39:51.765Z,100137.03
2023-03-20T06:40:33.675Z,100119.97
2023-03-20T06:41:24.583Z,100146.59
2023-03-20T06:42:16.254Z,100123.13
2023-03-20T06:42:56.841Z,100147.59
2023-03-20T06:43:37.638Z,100136.22
2023-03-20T06:44:24.686Z,100124.66
2023-03-20T06:45:19.726Z,100127.25
2023-03-20T06:46:13.712Z,100087.09
2023-03-20T06:47:07.636Z,100111.72
2023-03-20T06:48:01.632Z,100118.59
2023-03-20T06:48:55.638Z,100127.00
2023-03-20T06:49:45.586Z,100117.03
2023-03-20T06:50:21.092Z,100132.28
2023-03-20T06:51:07.642Z,100134.25
2023-03-20T06:51:41.728Z,100133.41
2023-03-20T06:52:29.628Z,100120.16
2023-03-20T06:53:03.776Z,100125.84
2023-03-20T06:53:50.652Z,100124.59
2023-03-20T06:54:24.719Z,100119.44
2023-03-20T06:55:05.661Z,100127.56
2023-03-20T06:55:45.857Z,100128.72
2023-03-20T06:56:26.659Z,100139.41
2023-03-20T06:57:06.728Z,100130.28
2023-03-20T06:57:47.620Z,100125.44
2023-03-20T06:58:27.823Z,100136.53
2023-03-20T06:59:08.605Z,100140.69
2023-03-20T06:59:48.802Z,100143.81
2023-03-20T07:00:29.722Z,100131.53
2023-03-20T07:01:16.706Z,100131.69
2023-03-20T07:01:57.733Z,100124.59
2023-03-20T07:02:38.113Z,100130.84
2023-03-20T07:03:18.638Z,100121.44
2023-03-20T07:03:59.151Z,100129.16
2023-03-20T07:04:40.655Z,100141.41
2023-03-20T07:05:21.807Z,100132.25
2023-03-20T07:06:02.676Z,100140.53
2023-03-20T07:06:42.818Z,100146.94
2023-03-20T07:07:23.616Z,100149.66
2023-03-20T07:08:03.718Z,100130.53
2023-03-20T07:08:44.607Z,100121.41
2023-03-20T07:09:25.731Z,100132.81
2023-03-20T07:10:05.599Z,100143.66
2023-03-20T07:10:46.852Z,100143.97
2023-03-20T07:11:27.615Z,100154.63
2023-03-20T07:12:09.652Z,100147.66
2023-03-20T07:12:50.656Z,100145.66
2023-03-20T07:13:30.740Z,100138.69
2023-03-20T07:14:10.615Z,100145.38
2023-03-20T07:14:50.997Z,100154.09
2023-03-20T07:15:31.610Z,100139.41
2023-03-20T07:16:12.752Z,100123.16
2023-03-20T07:16:53.707Z,100151.63
2023-03-20T07:17:33.708Z,100129.00
2023-03-20T07:18:14.588Z,100136.00
2023-03-20T07:18:54.774Z,100155.06
2023-03-20T07:19:37.911Z,100139.66
2023-03-20T07:20:19.724Z,100140.25
2023-03-20T07:21:00.646Z,100125.72
2023-03-20T07:21:42.312Z,100142.97
2023-03-20T07:22:32.625Z,100131.72
2023-03-20T07:23:12.684Z,100147.91
2023-03-20T07:23:53.604Z,100148.50
2023-03-20T07:24:33.756Z,100141.06
2023-03-20T07:25:16.613Z,100138.81
2023-03-20T07:25:56.721Z,100147.66
2023-03-20T07:26:37.612Z,100127.38
2023-03-20T07:27:17.957Z,100133.09
2023-03-20T07:27:58.610Z,100126.25
2023-03-20T07:28:38.701Z,100130.53
2023-03-20T07:29:20.628Z,100139.38
2023-03-20T07:30:00.995Z,100152.75
2023-03-20T07:30:40.594Z,100128.25
2023-03-20T07:31:31.281Z,100129.97
2023-03-20T07:32:12.612Z,100135.66
2023-03-20T07:32:52.717Z,100149.19
2023-03-20T07:33:32.627Z,100137.34
2023-03-20T07:34:12.721Z,100156.66
2023-03-20T07:34:53.587Z,100131.59
2023-03-20T07:35:33.880Z,100141.28
2023-03-20T07:36:14.573Z,100149.56
2023-03-20T07:36:54.711Z,100130.38
2023-03-20T07:37:34.592Z,100147.59
2023-03-20T07:38:14.724Z,100133.19
2023-03-20T07:38:55.602Z,100133.03
2023-03-20T07:39:35.941Z,100125.66
2023-03-20T07:40:17.595Z,100124.81
2023-03-20T07:41:00.688Z,100149.53
2023-03-20T07:41:41.663Z,100143.28
2023-03-20T07:42:21.830Z,100133.19
2023-03-20T07:43:01.589Z,100139.03
2023-03-20T07:43:43.596Z,100124.06
2023-03-20T07:44:25.622Z,100146.69
2023-03-20T07:45:06.637Z,100123.75
2023-03-20T07:45:46.691Z,100141.38
2023-03-20T07:46:26.733Z,100117.72
2023-03-20T07:47:07.587Z,100127.84
2023-03-20T07:47:49.906Z,100135.66
2023-03-20T07:48:30.588Z,100151.66
2023-03-20T07:49:11.464Z,100146.94
2023-03-20T07:49:53.601Z,100138.19
2023-03-20T07:50:33.664Z,100128.19
2023-03-20T07:51:14.560Z,100131.16
2023-03-20T07:51:57.058Z,100147.78
2023-03-20T07:52:37.589Z,100158.59
2023-03-20T07:53:17.670Z,100132.97
2023-03-20T07:53:58.568Z,100154.59
2023-03-20T07:54:38.671Z,100148.44
2023-03-20T07:55:18.823Z,100135.81
2023-03-20T07:55:58.659Z,100145.13
2023-03-20T07:56:39.622Z,100152.13
2023-03-20T07:57:19.686Z,100125.22
2023-03-20T07:57:59.575Z,100133.72
2023-03-20T07:58:39.724Z,100138.81
2023-03-20T07:59:20.590Z,100138.25
2023-03-20T08:00:00.841Z,100141.13
2023-03-20T08:00:41.640Z,100156.34
2023-03-20T08:01:21.723Z,100144.69
2023-03-20T08:02:02.584Z,100143.75
2023-03-20T08:02:42.828Z,100148.25
2023-03-20T08:03:22.626Z,100149.91
2023-03-20T08:04:16.612Z,100131.13
2023-03-20T08:05:10.572Z,100148.41
2023-03-20T08:05:57.641Z,100149.09
2023-03-20T08:06:31.693Z,100134.19
2023-03-20T08:07:18.554Z,100143.69
2023-03-20T08:07:52.726Z,100152.28
2023-03-20T08:08:40.565Z,100142.75
2023-03-20T08:09:14.662Z,100153.47
2023-03-20T08:10:02.544Z,100134.63
2023-03-20T08:10:36.709Z,100138.31
2023-03-20T08:11:18.585Z,100143.28
2023-03-20T08:11:58.648Z,100131.59
2023-03-20T08:12:39.552Z,100131.72
2023-03-20T08:13:19.652Z,100139.25
2023-03-20T08:14:00.551Z,100151.22
2023-03-20T08:14:43.680Z,100134.66
2023-03-20T08:15:24.539Z,100124.28
2023-03-20T08:16:04.641Z,100121.38
2023-03-20T08:16:45.665Z,100132.75
2023-03-20T08:17:25.747Z,100155.44
2023-03-20T08:18:06.582Z,100115.88
2023-03-20T08:18:46.663Z,100142.25
2023-03-20T08:19:27.591Z,100152.91
2023-03-20T08:20:07.668Z,100137.19
2023-03-20T08:20:48.565Z,100134.94
2023-03-20T08:21:28.714Z,100137.94
2023-03-20T08:22:09.573Z,100148.78
2023-03-20T08:22:52.385Z,100128.09
2023-03-20T08:23:33.563Z,100153.72
2023-03-20T08:24:14.680Z,100143.66
2023-03-20T08:24:55.549Z,100127.19
2023-03-20T08:25:35.940Z,100132.69
2023-03-20T08:26:16.551Z,100146.47
2023-03-20T08:26:56.653Z,100124.06